createdAt,value
2022-10-23T00:01:51.502Z,7.63
2022-10-23T00:04:21.059Z,7.70
2022-10-23T00:06:49.369Z,13.00
2022-10-23T00:09:23.187Z,9.00
2022-10-23T00:11:53.327Z,5.43
2022-10-23T00:14:23.168Z,5.47
2022-10-23T00:16:51.153Z,12.80
2022-10-23T00:19:19.068Z,6.00
2022-10-23T00:21:47.045Z,5.23
2022-10-23T00:24:14.936Z,5.73
2022-10-23T00:26:43.017Z,5.57
2022-10-23T00:29:12.738Z,5.77
2022-10-23T00:31:40.757Z,10.10
2022-10-23T00:34:09.259Z,5.17
2022-10-23T00:36:37.746Z,5.70
2022-10-23T00:39:06.088Z,5.87
2022-10-23T00:41:34.054Z,5.03
2022-10-23T00:44:06.674Z,4.90
2022-10-23T00:46:36.165Z,5.30
2022-10-23T00:49:05.300Z,7.50
2022-10-23T00:51:37.503Z,5.10
2022-10-23T00:54:23.501Z,6.43
2022-10-23T00:56:52.877Z,5.67
2022-10-23T00:59:20.764Z,6.13
2022-10-23T01:01:50.194Z,5.90
2022-10-23T01:04:18.275Z,6.90
2022-10-23T01:06:52.112Z,4.53
2022-10-23T01:09:26.478Z,6.37
2022-10-23T01:11:59.102Z,9.90
2022-10-23T01:14:31.023Z,11.73
2022-10-23T01:17:04.768Z,5.27
2022-10-23T01:19:44.457Z,5.70
2022-10-23T01:22:22.108Z,6.33
2022-10-23T01:24:52.876Z,5.60
2022-10-23T01:27:24.068Z,6.47
2022-10-23T01:30:00.402Z,6.77
2022-10-23T01:32:31.728Z,6.17
2022-10-23T01:35:04.115Z,8.27
2022-10-23T01:37:35.908Z,8.13
2022-10-23T01:40:07.252Z,5.70
2022-10-23T01:42:38.912Z,6.17
2022-10-23T01:45:11.003Z,5.50
2022-10-23T01:47:39.963Z,7.63
2022-10-23T01:50:09.643Z,6.77
2022-10-23T01:52:38.272Z,8.17
2022-10-23T01:55:07.470Z,10.00
2022-10-23T01:57:37.591Z,7.20
2022-10-23T02:00:07.961Z,17.90
2022-10-23T02:02:37.306Z,7.00
2022-10-23T02:05:08.408Z,7.40
2022-10-23T02:07:36.757Z,8.70
2022-10-23T02:10:05.490Z,8.47
2022-10-23T02:12:41.685Z,7.77
2022-10-23T02:15:14.158Z,7.90
2022-10-23T02:17:50.047Z,9.53
2022-10-23T02:20:22.261Z,8.60
2022-10-23T02:22:56.717Z,7.40
2022-10-23T02:25:29.587Z,6.30
2022-10-23T02:28:01.058Z,6.60
2022-10-23T02:30:29.745Z,6.50
2022-10-23T02:32:58.588Z,6.43
2022-10-23T02:35:26.777Z,6.30
2022-10-23T02:37:55.909Z,6.07
2022-10-23T02:40:25.421Z,6.10
2022-10-23T02:42:59.668Z,5.20
2022-10-23T02:45:31.668Z,5.03
2022-10-23T02:48:04.180Z,8.63
2022-10-23T02:50:39.070Z,4.37
2022-10-23T02:53:13.586Z,6.83
2022-10-23T02:55:48.057Z,6.20
2022-10-23T02:58:21.518Z,6.43
2022-10-23T03:00:53.505Z,6.33
2022-10-23T03:03:23.836Z,6.40
2022-10-23T03:05:51.796Z,5.30
2022-10-23T03:08:19.676Z,5.83
2022-10-23T03:13:18.239Z,8.83
2022-10-23T03:15:46.175Z,4.37
2022-10-23T03:18:14.320Z,4.90
2022-10-23T03:20:42.193Z,5.90
2022-10-23T03:23:13.244Z,9.10
2022-10-23T03:25:41.140Z,7.20
2022-10-23T03:28:09.019Z,6.80
2022-10-23T03:30:38.257Z,5.67
2022-10-23T03:33:06.148Z,5.53
2022-10-23T03:35:34.017Z,8.50
2022-10-23T03:38:01.912Z,5.50
2022-10-23T03:40:29.790Z,5.50
2022-10-23T03:42:57.682Z,6.70
2022-10-23T03:45:25.548Z,5.63
2022-10-23T03:47:54.838Z,5.80
2022-10-23T03:50:22.737Z,5.03
2022-10-23T03:52:50.671Z,6.40
2022-10-23T03:55:19.000Z,5.27
2022-10-23T03:57:46.890Z,6.13
2022-10-23T04:00:15.214Z,8.70
2022-10-23T04:02:43.242Z,5.47
2022-10-23T04:05:12.804Z,5.10
2022-10-23T04:07:40.793Z,9.10
2022-10-23T04:10:09.365Z,5.43
2022-10-23T04:12:37.347Z,5.20
2022-10-23T04:15:05.973Z,5.03
2022-10-23T04:17:33.854Z,5.80
2022-10-23T04:20:01.833Z,9.77
2022-10-23T04:22:31.156Z,7.20
2022-10-23T04:24:59.253Z,7.97
2022-10-23T04:27:27.123Z,5.10
2022-10-23T04:29:56.912Z,4.40
2022-10-23T04:32:27.038Z,6.23
2022-10-23T04:34:54.910Z,6.57
2022-10-23T04:37:22.844Z,4.90
2022-10-23T04:39:52.161Z,4.53
2022-10-23T04:42:20.206Z,4.97
2022-10-23T04:44:48.093Z,4.20
2022-10-23T04:47:16.017Z,4.40
2022-10-23T04:49:43.877Z,5.00
2022-10-23T04:52:11.782Z,4.43
2022-10-23T04:54:40.050Z,6.50
2022-10-23T04:57:09.326Z,6.80
2022-10-23T04:59:37.339Z,5.00
2022-10-23T05:02:07.664Z,4.73
2022-10-23T05:04:35.551Z,6.03
2022-10-23T05:07:03.449Z,5.93
2022-10-23T05:09:31.322Z,5.40
2022-10-23T05:11:59.191Z,10.70
2022-10-23T05:14:28.519Z,5.43
2022-10-23T05:17:00.148Z,7.00
2022-10-23T05:19:30.996Z,11.37
2022-10-23T05:21:59.274Z,12.83
2022-10-23T05:24:27.547Z,9.33
2022-10-23T05:26:55.560Z,9.17
2022-10-23T05:29:23.700Z,7.93
2022-10-23T05:31:56.198Z,12.70
2022-10-23T05:34:26.412Z,8.23
2022-10-23T05:36:54.574Z,10.50
2022-10-23T05:39:22.479Z,12.50
2022-10-23T05:41:51.198Z,13.73
2022-10-23T05:44:19.038Z,10.80
2022-10-23T05:46:46.867Z,11.13
2022-10-23T05:49:16.106Z,10.07
2022-10-23T05:51:43.935Z,8.00
2022-10-23T05:54:11.810Z,7.80
2022-10-23T05:56:41.783Z,7.30
2022-10-23T05:59:10.144Z,5.90
2022-10-23T06:01:38.451Z,8.50
2022-10-23T06:04:06.936Z,7.40
2022-10-23T06:06:36.786Z,7.50
2022-10-23T06:09:04.970Z,9.23
2022-10-23T06:11:32.831Z,9.20
2022-10-23T06:14:01.145Z,9.97
2022-10-23T06:16:29.217Z,9.73
2022-10-23T06:18:57.475Z,30.20
2022-10-23T06:21:25.909Z,24.50
2022-10-23T06:23:56.094Z,14.47
2022-10-23T06:26:24.351Z,19.03
2022-10-23T06:28:52.187Z,12.93
2022-10-23T06:31:21.751Z,13.33
2022-10-23T06:33:49.580Z,17.77
2022-10-23T06:36:17.465Z,26.23
2022-10-23T06:38:45.443Z,25.80
2022-10-23T06:41:16.825Z,29.33
2022-10-23T06:43:44.986Z,20.50
2022-10-23T06:46:12.848Z,42.97
2022-10-23T06:48:42.635Z,64.03
2022-10-23T06:51:12.808Z,34.73
2022-10-23T06:53:41.160Z,62.60
2022-10-23T06:56:09.667Z,29.30
2022-10-23T06:58:40.052Z,13.87
2022-10-23T07:01:09.763Z,34.20
2022-10-23T07:03:37.706Z,31.80
2022-10-23T07:06:07.705Z,20.77
2022-10-23T07:08:35.660Z,27.70
2022-10-23T07:11:05.311Z,8.67
2022-10-23T07:13:34.314Z,18.40
2022-10-23T07:16:12.362Z,5.30
2022-10-23T07:18:40.333Z,14.83
2022-10-23T07:21:08.181Z,5.90
2022-10-23T07:23:36.087Z,9.87
2022-10-23T07:26:08.755Z,5.87
2022-10-23T07:28:37.706Z,16.40
2022-10-23T07:31:05.922Z,5.80
2022-10-23T07:33:35.159Z,6.23
2022-10-23T07:36:05.255Z,5.53
2022-10-23T07:38:33.257Z,12.07
2022-10-23T07:41:01.336Z,13.83
2022-10-23T07:43:29.255Z,4.77
2022-10-23T07:45:57.333Z,5.63
2022-10-23T07:48:27.215Z,4.17
2022-10-23T07:51:00.863Z,7.87
2022-10-23T07:53:29.008Z,2.93
2022-10-23T07:55:58.224Z,3.00
2022-10-23T07:58:27.290Z,2.30
2022-10-23T08:00:58.495Z,4.53
2022-10-23T08:03:26.836Z,5.30
2022-10-23T08:05:56.775Z,3.73
2022-10-23T08:08:25.760Z,2.80
2022-10-23T08:10:55.583Z,2.83
2022-10-23T08:13:23.532Z,4.40
2022-10-23T08:15:52.309Z,2.10
2022-10-23T08:18:20.405Z,3.87
2022-10-23T08:20:49.154Z,6.63
2022-10-23T08:23:19.379Z,31.93
2022-10-23T08:25:47.747Z,7.30
2022-10-23T08:28:16.586Z,9.07
2022-10-23T08:30:44.477Z,3.67
2022-10-23T08:33:12.337Z,6.50
2022-10-23T08:35:40.675Z,2.57
2022-10-23T08:38:09.420Z,5.80
2022-10-23T08:40:39.132Z,5.23
2022-10-23T08:43:12.464Z,1.87
2022-10-23T08:45:44.316Z,3.10
2022-10-23T08:48:17.168Z,5.00
2022-10-23T08:50:49.332Z,3.50
2022-10-23T08:53:21.699Z,2.70
2022-10-23T08:55:58.159Z,4.30
2022-10-23T08:58:31.950Z,5.20
2022-10-23T09:01:00.002Z,8.53
2022-10-23T09:03:28.297Z,3.43
2022-10-23T09:06:08.980Z,13.20
2022-10-23T09:08:46.243Z,3.20
2022-10-23T09:11:19.432Z,19.53
2022-10-23T09:14:08.912Z,22.43
2022-10-23T09:16:45.101Z,2.80
2022-10-23T09:19:15.931Z,3.10
2022-10-23T09:21:46.050Z,8.37
2022-10-23T09:24:17.902Z,8.27
2022-10-23T09:26:49.828Z,1.50
2022-10-23T09:29:23.955Z,1.30
2022-10-23T09:31:53.143Z,7.07
2022-10-23T09:34:23.592Z,2.60
2022-10-23T09:36:53.596Z,2.20
2022-10-23T09:39:28.181Z,1.60
2022-10-23T09:41:57.624Z,1.50
2022-10-23T09:44:26.511Z,2.20
2022-10-23T09:46:56.267Z,6.37
2022-10-23T09:49:26.199Z,1.03
2022-10-23T09:52:03.128Z,1.40
2022-10-23T09:54:35.038Z,1.23
2022-10-23T09:57:16.985Z,5.40
2022-10-23T09:59:45.118Z,1.90
2022-10-23T10:02:22.716Z,1.80
2022-10-23T10:04:50.581Z,1.30
2022-10-23T10:07:21.622Z,1.93
2022-10-23T10:09:49.966Z,1.50
2022-10-23T10:12:31.705Z,1.17
2022-10-23T10:15:07.380Z,2.10
2022-10-23T10:17:40.944Z,1.57
2022-10-23T10:20:20.505Z,3.60
2022-10-23T10:22:52.463Z,1.40
2022-10-23T10:25:23.487Z,1.80
2022-10-23T10:28:04.544Z,0.80
2022-10-23T10:30:38.453Z,1.37
2022-10-23T10:33:10.979Z,2.80
2022-10-23T10:35:42.448Z,2.50
2022-10-23T10:38:31.128Z,2.20
2022-10-23T10:41:23.847Z,1.93
2022-10-23T10:44:01.690Z,0.60
2022-10-23T10:46:32.503Z,0.70
2022-10-23T10:49:01.793Z,1.60
2022-10-23T10:51:31.800Z,1.00
2022-10-23T10:54:08.174Z,1.10
2022-10-23T10:56:39.654Z,3.23
2022-10-23T10:59:15.307Z,1.33
2022-10-23T11:01:47.404Z,2.70
2022-10-23T11:04:21.383Z,1.47
2022-10-23T11:06:53.456Z,1.30
2022-10-23T11:09:23.040Z,3.17
2022-10-23T11:11:51.183Z,1.83
2022-10-23T11:14:22.660Z,1.83
2022-10-23T11:16:52.446Z,1.10
2022-10-23T11:19:23.575Z,2.70
2022-10-23T11:21:58.167Z,2.30
2022-10-23T11:24:49.041Z,1.20
2022-10-23T11:27:28.797Z,1.03
2022-10-23T11:30:18.981Z,0.80
2022-10-23T11:33:02.255Z,1.10
2022-10-23T11:35:44.287Z,1.20
2022-10-23T11:38:18.044Z,0.70
2022-10-23T11:40:47.246Z,0.80
2022-10-23T11:43:15.384Z,1.83
2022-10-23T11:45:44.621Z,2.03
2022-10-23T11:48:23.705Z,1.37
2022-10-23T11:50:54.925Z,1.10
2022-10-23T11:53:28.864Z,1.33
2022-10-23T11:56:00.150Z,0.90
2022-10-23T11:58:32.075Z,1.67
2022-10-23T12:01:04.897Z,0.70
2022-10-23T12:03:42.913Z,1.40
2022-10-23T12:06:23.055Z,1.80
2022-10-23T12:08:57.419Z,1.23
2022-10-23T12:11:40.135Z,2.63
2022-10-23T12:14:26.746Z,2.80
2022-10-23T12:16:56.212Z,2.47
2022-10-23T12:19:25.539Z,2.60
2022-10-23T12:21:54.695Z,1.70
2022-10-23T12:24:39.827Z,6.00
2022-10-23T12:27:32.560Z,2.77
2022-10-23T12:30:16.599Z,5.40
2022-10-23T12:32:58.813Z,2.03
2022-10-23T12:35:59.629Z,2.83
2022-10-23T12:38:32.448Z,0.83
2022-10-23T12:41:12.018Z,1.47
2022-10-23T12:43:41.316Z,2.13
2022-10-23T12:46:26.541Z,7.20
2022-10-23T12:48:57.997Z,1.70
2022-10-23T12:51:29.079Z,7.47
2022-10-23T12:53:57.138Z,1.27
2022-10-23T12:56:28.523Z,1.67
2022-10-23T12:59:00.958Z,7.33
2022-10-23T13:01:29.986Z,3.80
2022-10-23T13:04:12.592Z,0.70
2022-10-23T13:06:40.944Z,1.40
2022-10-23T13:09:19.184Z,1.10
2022-10-23T13:11:47.220Z,2.00
2022-10-23T13:14:15.854Z,1.47
2022-10-23T13:16:43.744Z,1.17
2022-10-23T13:19:25.940Z,1.30
2022-10-23T13:21:53.877Z,0.93
2022-10-23T13:24:23.162Z,1.33
2022-10-23T13:26:51.165Z,1.33
2022-10-23T13:29:21.478Z,1.70
2022-10-23T13:31:49.729Z,1.50
2022-10-23T13:34:27.135Z,1.40
2022-10-23T13:36:58.302Z,1.70
2022-10-23T13:39:28.178Z,1.30
2022-10-23T13:41:56.102Z,1.00
2022-10-23T13:44:25.189Z,1.37
2022-10-23T13:46:53.373Z,1.47
2022-10-23T13:49:21.602Z,1.00
2022-10-23T13:51:52.789Z,1.33
2022-10-23T13:54:22.990Z,1.30
2022-10-23T13:56:51.256Z,1.80
2022-10-23T13:59:19.757Z,1.43
2022-10-23T14:01:48.480Z,2.80
2022-10-23T14:04:18.485Z,3.20
2022-10-23T14:06:46.567Z,2.23
2022-10-23T14:09:17.316Z,1.47
2022-10-23T14:11:45.758Z,2.77
2022-10-23T14:14:13.727Z,1.57
2022-10-23T14:16:41.605Z,1.90
2022-10-23T14:19:10.423Z,2.07
2022-10-23T14:21:38.340Z,2.70
2022-10-23T14:24:06.728Z,1.83
2022-10-23T14:26:35.979Z,1.93
2022-10-23T14:29:07.648Z,1.80
2022-10-23T14:31:38.103Z,1.67
2022-10-23T14:34:06.027Z,2.50
2022-10-23T14:36:43.283Z,5.70
2022-10-23T14:39:18.766Z,3.00
2022-10-23T14:41:48.200Z,1.90
2022-10-23T14:44:16.180Z,2.63
2022-10-23T14:46:44.101Z,1.60
2022-10-23T14:49:12.176Z,3.40
2022-10-23T14:51:40.068Z,2.63
2022-10-23T14:54:09.217Z,3.13
2022-10-23T14:56:39.454Z,1.90
2022-10-23T14:59:10.709Z,4.03
2022-10-23T15:01:43.897Z,2.40
2022-10-23T15:04:14.439Z,2.87
2022-10-23T15:06:42.681Z,1.80
2022-10-23T15:09:10.654Z,3.57
2022-10-23T15:11:38.573Z,1.93
2022-10-23T15:14:08.075Z,2.33
2022-10-23T15:16:41.309Z,2.20
2022-10-23T15:19:13.495Z,2.83
2022-10-23T15:21:45.277Z,2.10
2022-10-23T15:24:13.157Z,2.90
2022-10-23T15:26:43.079Z,2.67
2022-10-23T15:29:12.900Z,2.20
2022-10-23T15:31:49.645Z,2.33
2022-10-23T15:34:19.310Z,4.90
2022-10-23T15:36:47.994Z,2.57
2022-10-23T15:39:17.331Z,2.37
2022-10-23T15:41:45.457Z,2.23
2022-10-23T15:44:18.099Z,2.30
2022-10-23T15:46:45.997Z,2.20
2022-10-23T15:49:14.234Z,2.17
2022-10-23T15:51:42.685Z,2.57
2022-10-23T15:54:13.132Z,2.53
2022-10-23T15:56:41.022Z,3.63
2022-10-23T15:59:08.988Z,3.27
2022-10-23T16:01:38.417Z,3.03
2022-10-23T16:04:06.529Z,3.10
2022-10-23T16:06:34.449Z,3.73
2022-10-23T16:09:02.578Z,7.80
2022-10-23T16:11:32.213Z,4.50
2022-10-23T16:14:01.740Z,5.33
2022-10-23T16:16:29.802Z,5.83
2022-10-23T16:19:01.478Z,12.63
2022-10-23T16:21:30.708Z,5.13
2022-10-23T16:24:00.531Z,5.00
2022-10-23T16:26:29.672Z,5.60
2022-10-23T16:28:59.418Z,4.77
2022-10-23T16:31:27.692Z,5.37
2022-10-23T16:36:25.073Z,4.20
2022-10-23T16:38:52.942Z,5.53
2022-10-23T16:41:20.825Z,5.00
2022-10-23T16:43:48.691Z,5.93
2022-10-23T16:46:17.972Z,5.00
2022-10-23T16:48:46.023Z,7.47
2022-10-23T16:51:15.870Z,5.10
2022-10-23T16:53:45.293Z,5.60
2022-10-23T16:56:15.177Z,7.10
2022-10-23T16:58:43.434Z,5.33
2022-10-23T17:01:13.486Z,5.97
2022-10-23T17:03:43.489Z,5.27
2022-10-23T17:06:12.984Z,5.50
2022-10-23T17:08:41.088Z,4.73
2022-10-23T17:11:12.106Z,5.73
2022-10-23T17:13:41.708Z,6.90
2022-10-23T17:16:11.950Z,6.00
2022-10-23T17:18:43.721Z,7.50
2022-10-23T17:21:12.459Z,7.33
2022-10-23T17:23:40.357Z,8.70
2022-10-23T17:26:10.709Z,8.50
2022-10-23T17:28:41.646Z,9.63
2022-10-23T17:31:14.349Z,12.37
2022-10-23T17:33:43.120Z,11.57
2022-10-23T17:36:11.974Z,9.80
2022-10-23T17:38:41.126Z,14.60
2022-10-23T17:41:12.236Z,13.43
2022-10-23T17:43:40.641Z,15.30
2022-10-23T17:46:10.132Z,12.53
2022-10-23T17:48:39.312Z,14.17
2022-10-23T17:51:09.673Z,13.67
2022-10-23T17:53:38.957Z,21.20
2022-10-23T17:56:08.971Z,20.43
2022-10-23T17:58:38.237Z,16.97
2022-10-23T18:01:06.761Z,21.17
2022-10-23T18:03:37.252Z,23.50
2022-10-23T18:06:08.657Z,24.17
2022-10-23T18:08:36.888Z,22.73
2022-10-23T18:11:05.153Z,21.23
2022-10-23T18:13:33.831Z,22.90
2022-10-23T18:16:03.639Z,22.40
2022-10-23T18:18:31.610Z,25.10
2022-10-23T18:20:59.892Z,24.40
2022-10-23T18:23:28.242Z,19.83
2022-10-23T18:25:56.190Z,21.27
2022-10-23T18:28:24.124Z,19.80
2022-10-23T18:30:54.671Z,18.83
2022-10-23T18:33:26.743Z,25.33
2022-10-23T18:35:54.658Z,28.67
2022-10-23T18:38:22.580Z,28.17
2022-10-23T18:40:55.589Z,25.60
2022-10-23T18:43:42.706Z,25.50
2022-10-23T18:46:11.980Z,22.93
2022-10-23T18:48:41.461Z,21.27
2022-10-23T18:51:15.826Z,22.80
2022-10-23T18:53:46.658Z,19.37
2022-10-23T18:56:15.472Z,19.73
2022-10-23T18:58:43.457Z,20.47
2022-10-23T19:01:11.815Z,29.40
2022-10-23T19:03:41.143Z,25.80
2022-10-23T19:06:09.539Z,30.00
2022-10-23T19:08:38.122Z,27.37
2022-10-23T19:11:07.368Z,30.00
2022-10-23T19:13:39.100Z,21.80
2022-10-23T19:16:10.393Z,28.10
2022-10-23T19:18:41.350Z,30.20
2022-10-23T19:21:09.293Z,30.80
2022-10-23T19:23:37.641Z,27.20
2022-10-23T19:26:08.803Z,36.10
2022-10-23T19:28:37.854Z,32.40
2022-10-23T19:31:07.630Z,33.63
2022-10-23T19:33:36.183Z,28.33
2022-10-23T19:36:08.806Z,29.40
2022-10-23T19:38:40.296Z,32.90
2022-10-23T19:41:08.484Z,30.07
2022-10-23T19:43:37.728Z,27.83
2022-10-23T19:46:09.483Z,30.60
2022-10-23T19:48:42.510Z,32.10
2022-10-23T19:51:13.952Z,39.67
2022-10-23T19:53:43.034Z,26.33
2022-10-23T19:56:12.476Z,26.50
2022-10-23T19:58:41.223Z,26.60
2022-10-23T20:01:11.358Z,24.77
2022-10-23T20:03:40.187Z,24.20
2022-10-23T20:06:11.718Z,25.23
2022-10-23T20:08:39.681Z,35.33
2022-10-23T20:11:08.221Z,41.17
2022-10-23T20:13:36.457Z,41.00
2022-10-23T20:16:04.590Z,40.80
2022-10-23T20:18:32.549Z,37.43
2022-10-23T20:21:02.334Z,37.03
2022-10-23T20:23:31.616Z,27.23
2022-10-23T20:26:05.597Z,27.20
2022-10-23T20:28:33.797Z,27.90
2022-10-23T20:31:03.275Z,34.50
2022-10-23T20:33:31.175Z,29.83
2022-10-23T20:35:59.153Z,30.70
2022-10-23T20:38:27.057Z,28.30
2022-10-23T20:41:00.313Z,29.40
2022-10-23T20:43:28.280Z,31.50
2022-10-23T20:45:56.174Z,38.67
2022-10-23T20:48:24.045Z,35.13
2022-10-23T20:50:52.044Z,37.70
2022-10-23T20:53:19.943Z,31.70
2022-10-23T20:55:47.821Z,33.47
2022-10-23T20:58:17.077Z,37.00
2022-10-23T21:00:45.053Z,35.77
2022-10-23T21:03:13.014Z,37.87
2022-10-23T21:05:40.892Z,27.60
2022-10-23T21:08:08.801Z,29.20
2022-10-23T21:10:36.659Z,32.10
2022-10-23T21:13:04.552Z,29.50
2022-10-23T21:15:34.839Z,31.77
2022-10-23T21:18:13.153Z,27.80
2022-10-23T21:20:50.666Z,29.03
2022-10-23T21:23:18.630Z,26.37
2022-10-23T21:28:15.357Z,27.60
2022-10-23T21:30:44.635Z,22.60
2022-10-23T21:33:12.557Z,37.60
2022-10-23T21:35:47.485Z,46.47
2022-10-23T21:38:26.253Z,58.13
2022-10-23T21:40:54.174Z,75.30
2022-10-23T21:43:22.195Z,49.50
2022-10-23T21:45:54.302Z,62.33
2022-10-23T21:48:23.397Z,56.17
2022-10-23T21:50:51.291Z,39.97
2022-10-23T21:53:19.202Z,44.40
2022-10-23T21:55:47.079Z,56.63
2022-10-23T21:58:15.013Z,59.50
2022-10-23T22:00:42.903Z,43.13
2022-10-23T22:03:12.194Z,58.57
2022-10-23T22:05:40.101Z,68.30
2022-10-23T22:08:08.004Z,37.43
2022-10-23T22:10:36.121Z,75.70
2022-10-23T22:13:03.986Z,70.17
2022-10-23T22:15:31.937Z,114.00
2022-10-23T22:18:00.473Z,39.87
2022-10-23T22:20:29.793Z,54.20
2022-10-23T22:22:57.682Z,94.33
2022-10-23T22:25:25.592Z,40.33
2022-10-23T22:27:53.530Z,58.03
2022-10-23T22:30:21.429Z,53.13
2022-10-23T22:32:49.309Z,68.47
2022-10-23T22:35:17.786Z,58.17
2022-10-23T22:37:47.012Z,34.63
2022-10-23T22:40:15.049Z,33.93
2022-10-23T22:42:43.191Z,39.17
2022-10-23T22:45:11.444Z,39.00
2022-10-23T22:47:39.369Z,36.43
2022-10-23T22:50:08.398Z,61.03
2022-10-23T22:52:36.293Z,35.20
2022-10-23T22:55:06.552Z,52.40
2022-10-23T22:57:34.494Z,43.03
2022-10-23T23:00:02.432Z,38.93
2022-10-23T23:02:30.355Z,47.17
2022-10-23T23:04:58.261Z,44.17
2022-10-23T23:07:26.177Z,39.17
2022-10-23T23:09:54.038Z,31.80
2022-10-23T23:12:23.313Z,37.43
2022-10-23T23:14:51.181Z,37.30
2022-10-23T23:17:19.129Z,37.27
2022-10-23T23:19:47.005Z,34.33
2022-10-23T23:22:14.929Z,32.70
2022-10-23T23:24:42.842Z,29.63
2022-10-23T23:27:10.742Z,32.37
2022-10-23T23:29:40.020Z,34.17
2022-10-23T23:32:07.921Z,30.87
2022-10-23T23:34:35.845Z,29.00
2022-10-23T23:37:03.786Z,27.77
2022-10-23T23:39:31.696Z,29.17
2022-10-23T23:41:59.596Z,29.43
2022-10-23T23:44:27.544Z,31.17
2022-10-23T23:46:56.936Z,29.70
2022-10-23T23:49:24.865Z,34.20
2022-10-23T23:51:52.805Z,29.87
2022-10-23T23:54:20.689Z,27.00
2022-10-23T23:56:48.564Z,34.87
2022-10-23T23:59:16.451Z,31.80
